< < Back
Terminal Aerodrome Forecast


Current Version              Previous Versions:   1  2  3  4  5  6  7  8  9  

Terminal Aerodrome Forecast

743
FTUS42 KTAE 221700
TAFVLD
TAF
KVLD 221720Z 2218/2318 24005KT P6SM SCT040
     FM230200 13003KT P6SM SCT200
     FM230900 05004KT 5SM BR BKN008
     FM231500 07008KT P6SM SCT015=



Latest METAR

669
SAUS70 KWBC 222200 RRJ
MTRVLD
METAR KVLD 222153Z 00000KT 10SM BKN070 29/21 A2995 RMK AO2 SLP147
T02890211


USA.gov is the U.S. government's official web portal to all federal, state and local government web resources and services.